Capitol Logistics 972

Operating for DHL



LPPT
Aeroporto da Portela de Sacavem
Lisbon, PT
LPMA
Madeira Airport
Funchal, PT

Activity Log

Date Flight Route Aircraft Duration
01/10/2022 CPX972 GANS5N GANSU NARTA ROLAR LIDRO LIDR1P B738 1h 47m

Route Details

Aircraft Information
Group: European Fleet
Types: A30F,A31F,B738
Route Data
Demand: H
Distance: 522nm
Duration: 1h 30m
Recm'd Route: GANS5N GANSU NARTA ROLAR LIDRO LIDR1P
Origin Wx: LPPT 242030Z 35010KT 310V050 9999 SCT025 15/10 Q1019
Dest. Wx: LPMA 242030Z 02013KT 350V070 9999 SCT015 BKN030 19/12 Q1022
Notes:

Financial History
Total Freight: 52,272lbs
Average Load: 52,272lbs/flt
Fuel Used: 10,461lbs
Avg. Fuel Used: 10,461lbs/flt
Fuel Expense: $3,243
Avg. Fuel Expense: $3,243
Avg. Fuel Cost: $0.31/lbs
Total Gross Income: $106,687
Pilot Pay: $259
Total Expenses: $13,056
Total Revenue: $90,007
Average Revenue: $106,687.15